sensor_id;sensor_type;location;lat;lon;timestamp;temperature;humidity
6948;DHT22;3513;47.664;9.162;2022-08-05T00:01:20;23.00;93.10
6948;DHT22;3513;47.664;9.162;2022-08-05T00:03:47;23.00;93.50
6948;DHT22;3513;47.664;9.162;2022-08-05T00:06:13;23.00;93.20
6948;DHT22;3513;47.664;9.162;2022-08-05T00:08:39;23.00;93.30
6948;DHT22;3513;47.664;9.162;2022-08-05T00:11:10;23.00;93.50
6948;DHT22;3513;47.664;9.162;2022-08-05T00:13:37;22.90;93.40
6948;DHT22;3513;47.664;9.162;2022-08-05T00:16:04;22.90;93.70
6948;DHT22;3513;47.664;9.162;2022-08-05T00:18:30;22.80;93.80
6948;DHT22;3513;47.664;9.162;2022-08-05T00:20:56;22.80;93.90
6948;DHT22;3513;47.664;9.162;2022-08-05T00:23:22;22.90;94.40
6948;DHT22;3513;47.664;9.162;2022-08-05T00:25:48;23.00;94.80
6948;DHT22;3513;47.664;9.162;2022-08-05T00:28:15;23.00;94.80
6948;DHT22;3513;47.664;9.162;2022-08-05T00:30:41;23.00;95.20
6948;DHT22;3513;47.664;9.162;2022-08-05T00:33:07;22.90;95.10
6948;DHT22;3513;47.664;9.162;2022-08-05T00:35:33;22.90;95.20
6948;DHT22;3513;47.664;9.162;2022-08-05T00:37:59;22.80;96.00
6948;DHT22;3513;47.664;9.162;2022-08-05T00:40:25;22.80;96.50
6948;DHT22;3513;47.664;9.162;2022-08-05T00:42:51;22.70;96.90
6948;DHT22;3513;47.664;9.162;2022-08-05T00:45:17;22.70;97.30
6948;DHT22;3513;47.664;9.162;2022-08-05T00:47:43;22.60;97.60
6948;DHT22;3513;47.664;9.162;2022-08-05T00:50:09;22.60;97.70
6948;DHT22;3513;47.664;9.162;2022-08-05T00:52:35;22.70;98.00
6948;DHT22;3513;47.664;9.162;2022-08-05T00:55:02;22.70;98.00
6948;DHT22;3513;47.664;9.162;2022-08-05T00:57:28;22.70;98.20
6948;DHT22;3513;47.664;9.162;2022-08-05T00:59:56;22.80;98.30
6948;DHT22;3513;47.664;9.162;2022-08-05T01:02:22;22.90;98.40
6948;DHT22;3513;47.664;9.162;2022-08-05T01:04:48;22.90;98.40
6948;DHT22;3513;47.664;9.162;2022-08-05T01:07:14;22.90;98.70
6948;DHT22;3513;47.664;9.162;2022-08-05T01:09:40;22.90;98.60
6948;DHT22;3513;47.664;9.162;2022-08-05T01:12:09;22.90;98.40
6948;DHT22;3513;47.664;9.162;2022-08-05T01:14:55;22.80;98.40
6948;DHT22;3513;47.664;9.162;2022-08-05T01:17:26;22.80;98.40
6948;DHT22;3513;47.664;9.162;2022-08-05T01:22:51;22.90;98.40
6948;DHT22;3513;47.664;9.162;2022-08-05T01:28:16;22.90;98.50
6948;DHT22;3513;47.664;9.162;2022-08-05T01:30:51;22.90;98.60
6948;DHT22;3513;47.664;9.162;2022-08-05T01:33:22;23.00;98.70
6948;DHT22;3513;47.664;9.162;2022-08-05T01:35:49;23.00;98.50
6948;DHT22;3513;47.664;9.162;2022-08-05T01:38:17;23.00;98.60
6948;DHT22;3513;47.664;9.162;2022-08-05T01:40:45;23.10;98.60
6948;DHT22;3513;47.664;9.162;2022-08-05T01:43:12;23.10;98.60
6948;DHT22;3513;47.664;9.162;2022-08-05T01:45:38;23.10;98.90
6948;DHT22;3513;47.664;9.162;2022-08-05T01:48:06;23.10;99.40
6948;DHT22;3513;47.664;9.162;2022-08-05T01:50:38;23.00;99.90
6948;DHT22;3513;47.664;9.162;2022-08-05T01:53:11;23.00;99.90
6948;DHT22;3513;47.664;9.162;2022-08-05T01:55:38;23.10;99.90
6948;DHT22;3513;47.664;9.162;2022-08-05T01:58:06;23.20;99.90
6948;DHT22;3513;47.664;9.162;2022-08-05T02:00:36;23.10;99.90
6948;DHT22;3513;47.664;9.162;2022-08-05T02:03:22;23.00;99.90
6948;DHT22;3513;47.664;9.162;2022-08-05T02:05:49;23.10;99.90
6948;DHT22;3513;47.664;9.162;2022-08-05T02:08:16;23.10;99.90
6948;DHT22;3513;47.664;9.162;2022-08-05T02:10:50;23.10;99.90
6948;DHT22;3513;47.664;9.162;2022-08-05T02:13:29;23.00;99.90
6948;DHT22;3513;47.664;9.162;2022-08-05T02:18:49;22.90;99.90
6948;DHT22;3513;47.664;9.162;2022-08-05T02:21:20;22.90;99.90
6948;DHT22;3513;47.664;9.162;2022-08-05T02:23:51;22.90;99.90
6948;DHT22;3513;47.664;9.162;2022-08-05T02:26:42;23.00;99.90
6948;DHT22;3513;47.664;9.162;2022-08-05T02:29:11;22.90;99.90
6948;DHT22;3513;47.664;9.162;2022-08-05T02:31:39;23.00;99.40
6948;DHT22;3513;47.664;9.162;2022-08-05T02:34:08;21.80;97.50
6948;DHT22;3513;47.664;9.162;2022-08-05T02:36:40;23.20;96.20
6948;DHT22;3513;47.664;9.162;2022-08-05T02:39:07;23.30;95.60
6948;DHT22;3513;47.664;9.162;2022-08-05T02:41:35;23.50;94.90
6948;DHT22;3513;47.664;9.162;2022-08-05T02:44:06;23.60;94.50
6948;DHT22;3513;47.664;9.162;2022-08-05T02:46:35;23.70;94.90
6948;DHT22;3513;47.664;9.162;2022-08-05T02:49:39;23.70;95.00
6948;DHT22;3513;47.664;9.162;2022-08-05T02:55:08;23.80;95.30
6948;DHT22;3513;47.664;9.162;2022-08-05T02:57:57;24.00;94.80
6948;DHT22;3513;47.664;9.162;2022-08-05T03:00:48;23.50;93.50
6948;DHT22;3513;47.664;9.162;2022-08-05T03:20:17;25.10;90.60
6948;DHT22;3513;47.664;9.162;2022-08-05T03:23:14;26.80;91.00
6948;DHT22;3513;47.664;9.162;2022-08-05T03:28:33;25.30;88.50
6948;DHT22;3513;47.664;9.162;2022-08-05T03:33:34;25.20;89.20
6948;DHT22;3513;47.664;9.162;2022-08-05T03:36:00;25.10;90.20
6948;DHT22;3513;47.664;9.162;2022-08-05T03:38:26;25.10;90.50
6948;DHT22;3513;47.664;9.162;2022-08-05T03:43:33;25.00;90.60
6948;DHT22;3513;47.664;9.162;2022-08-05T03:46:03;25.90;91.50
6948;DHT22;3513;47.664;9.162;2022-08-05T03:48:31;24.30;90.80
6948;DHT22;3513;47.664;9.162;2022-08-05T03:51:07;24.80;91.40
6948;DHT22;3513;47.664;9.162;2022-08-05T03:53:43;24.80;91.30
6948;DHT22;3513;47.664;9.162;2022-08-05T03:58:47;24.90;91.70
6948;DHT22;3513;47.664;9.162;2022-08-05T04:01:20;24.80;91.50
6948;DHT22;3513;47.664;9.162;2022-08-05T04:03:52;24.80;91.20
6948;DHT22;3513;47.664;9.162;2022-08-05T04:11:31;25.00;90.20
6948;DHT22;3513;47.664;9.162;2022-08-05T04:13:58;25.00;90.50
6948;DHT22;3513;47.664;9.162;2022-08-05T04:16:24;24.80;90.00
6948;DHT22;3513;47.664;9.162;2022-08-05T04:18:50;24.80;90.80
6948;DHT22;3513;47.664;9.162;2022-08-05T04:21:16;24.80;91.10
6948;DHT22;3513;47.664;9.162;2022-08-05T04:23:42;24.80;90.90
6948;DHT22;3513;47.664;9.162;2022-08-05T04:28:43;24.80;90.70
6948;DHT22;3513;47.664;9.162;2022-08-05T04:31:09;24.70;90.70
6948;DHT22;3513;47.664;9.162;2022-08-05T04:33:35;24.80;90.70
6948;DHT22;3513;47.664;9.162;2022-08-05T04:36:00;24.80;90.50
6948;DHT22;3513;47.664;9.162;2022-08-05T04:38:26;24.70;90.30
6948;DHT22;3513;47.664;9.162;2022-08-05T04:40:52;24.80;90.50
6948;DHT22;3513;47.664;9.162;2022-08-05T04:43:17;24.70;90.90
6948;DHT22;3513;47.664;9.162;2022-08-05T04:45:43;24.70;91.00
6948;DHT22;3513;47.664;9.162;2022-08-05T04:48:10;24.70;91.10
6948;DHT22;3513;47.664;9.162;2022-08-05T04:50:41;24.60;90.80
6948;DHT22;3513;47.664;9.162;2022-08-05T04:53:08;24.60;90.90
6948;DHT22;3513;47.664;9.162;2022-08-05T04:55:38;24.60;90.90
6948;DHT22;3513;47.664;9.162;2022-08-05T04:58:05;24.50;90.90
6948;DHT22;3513;47.664;9.162;2022-08-05T05:00:32;24.50;91.40
6948;DHT22;3513;47.664;9.162;2022-08-05T05:02:58;24.50;91.60
6948;DHT22;3513;47.664;9.162;2022-08-05T05:05:24;24.50;91.50
6948;DHT22;3513;47.664;9.162;2022-08-05T05:07:50;24.40;91.60
6948;DHT22;3513;47.664;9.162;2022-08-05T05:10:16;24.30;91.40
6948;DHT22;3513;47.664;9.162;2022-08-05T05:12:42;24.30;91.60
6948;DHT22;3513;47.664;9.162;2022-08-05T05:15:08;24.30;92.00
6948;DHT22;3513;47.664;9.162;2022-08-05T05:17:41;24.40;92.10
6948;DHT22;3513;47.664;9.162;2022-08-05T05:20:11;24.40;92.10
6948;DHT22;3513;47.664;9.162;2022-08-05T05:22:37;24.50;92.00
6948;DHT22;3513;47.664;9.162;2022-08-05T05:25:04;24.50;91.40
6948;DHT22;3513;47.664;9.162;2022-08-05T05:27:30;24.60;91.80
6948;DHT22;3513;47.664;9.162;2022-08-05T05:29:56;24.50;91.70
6948;DHT22;3513;47.664;9.162;2022-08-05T05:32:22;24.50;91.90
6948;DHT22;3513;47.664;9.162;2022-08-05T05:34:48;24.50;92.20
6948;DHT22;3513;47.664;9.162;2022-08-05T05:37:14;24.60;92.20
6948;DHT22;3513;47.664;9.162;2022-08-05T05:39:41;24.60;92.40
6948;DHT22;3513;47.664;9.162;2022-08-05T05:42:06;24.70;92.40
6948;DHT22;3513;47.664;9.162;2022-08-05T05:44:32;24.70;92.30
6948;DHT22;3513;47.664;9.162;2022-08-05T05:46:59;24.80;92.30
6948;DHT22;3513;47.664;9.162;2022-08-05T05:49:25;24.80;92.50
6948;DHT22;3513;47.664;9.162;2022-08-05T05:51:51;24.90;92.70
6948;DHT22;3513;47.664;9.162;2022-08-05T05:54:17;24.90;92.80
6948;DHT22;3513;47.664;9.162;2022-08-05T05:56:43;25.00;92.90
6948;DHT22;3513;47.664;9.162;2022-08-05T05:59:09;25.00;92.80
6948;DHT22;3513;47.664;9.162;2022-08-05T06:01:36;25.10;93.20
6948;DHT22;3513;47.664;9.162;2022-08-05T06:04:02;25.10;93.20
6948;DHT22;3513;47.664;9.162;2022-08-05T06:06:28;25.10;93.50
6948;DHT22;3513;47.664;9.162;2022-08-05T06:08:54;25.10;93.10
6948;DHT22;3513;47.664;9.162;2022-08-05T06:11:20;25.20;93.10
6948;DHT22;3513;47.664;9.162;2022-08-05T06:13:46;25.20;93.00
6948;DHT22;3513;47.664;9.162;2022-08-05T06:16:11;25.40;92.20
6948;DHT22;3513;47.664;9.162;2022-08-05T06:23:47;25.10;93.90
6948;DHT22;3513;47.664;9.162;2022-08-05T06:26:19;25.00;93.90
6948;DHT22;3513;47.664;9.162;2022-08-05T06:28:45;25.80;93.70
6948;DHT22;3513;47.664;9.162;2022-08-05T06:31:10;25.10;93.60
6948;DHT22;3513;47.664;9.162;2022-08-05T06:33:36;24.50;93.10
6948;DHT22;3513;47.664;9.162;2022-08-05T06:36:02;25.30;92.50
6948;DHT22;3513;47.664;9.162;2022-08-05T06:38:40;25.20;92.40
6948;DHT22;3513;47.664;9.162;2022-08-05T06:41:28;24.70;92.20
6948;DHT22;3513;47.664;9.162;2022-08-05T06:49:01;25.40;91.30
6948;DHT22;3513;47.664;9.162;2022-08-05T06:51:27;25.50;91.30
6948;DHT22;3513;47.664;9.162;2022-08-05T06:54:00;26.20;91.10
6948;DHT22;3513;47.664;9.162;2022-08-05T07:40:22;27.10;78.50
6948;DHT22;3513;47.664;9.162;2022-08-05T07:53:08;27.90;72.70
6948;DHT22;3513;47.664;9.162;2022-08-05T07:58:15;28.10;71.60
6948;DHT22;3513;47.664;9.162;2022-08-05T08:00:50;28.20;69.00
6948;DHT22;3513;47.664;9.162;2022-08-05T08:03:21;28.20;70.60
6948;DHT22;3513;47.664;9.162;2022-08-05T08:13:30;28.40;69.50
6948;DHT22;3513;47.664;9.162;2022-08-05T08:15:56;28.50;68.80
6948;DHT22;3513;47.664;9.162;2022-08-05T08:18:24;28.60;69.00
6948;DHT22;3513;47.664;9.162;2022-08-05T09:15:16;29.30;63.40
6948;DHT22;3513;47.664;9.162;2022-08-05T09:17:45;29.00;63.80
6948;DHT22;3513;47.664;9.162;2022-08-05T09:20:15;29.00;64.30
6948;DHT22;3513;47.664;9.162;2022-08-05T09:25:39;29.10;64.60
6948;DHT22;3513;47.664;9.162;2022-08-05T09:28:24;29.30;64.90
6948;DHT22;3513;47.664;9.162;2022-08-05T09:42:00;30.00;61.70
6948;DHT22;3513;47.664;9.162;2022-08-05T09:44:37;30.10;61.90
6948;DHT22;3513;47.664;9.162;2022-08-05T09:49:46;30.20;62.30
6948;DHT22;3513;47.664;9.162;2022-08-05T09:55:13;30.30;62.70
6948;DHT22;3513;47.664;9.162;2022-08-05T09:57:47;29.70;63.70
6948;DHT22;3513;47.664;9.162;2022-08-05T10:00:21;30.30;64.90
6948;DHT22;3513;47.664;9.162;2022-08-05T10:08:37;28.50;61.80
6948;DHT22;3513;47.664;9.162;2022-08-05T10:11:15;30.30;63.20
6948;DHT22;3513;47.664;9.162;2022-08-05T10:14:28;29.80;63.00
6948;DHT22;3513;47.664;9.162;2022-08-05T10:17:16;30.30;63.20
6948;DHT22;3513;47.664;9.162;2022-08-05T10:20:18;29.60;63.10
6948;DHT22;3513;47.664;9.162;2022-08-05T10:22:57;29.60;62.40
6948;DHT22;3513;47.664;9.162;2022-08-05T10:44:01;30.80;59.00
6948;DHT22;3513;47.664;9.162;2022-08-05T10:46:54;30.60;59.00
6948;DHT22;3513;47.664;9.162;2022-08-05T10:55:20;30.90;59.40
6948;DHT22;3513;47.664;9.162;2022-08-05T11:06:11;31.30;58.50
6948;DHT22;3513;47.664;9.162;2022-08-05T11:08:37;30.60;58.00
6948;DHT22;3513;47.664;9.162;2022-08-05T11:11:33;31.40;57.80
6948;DHT22;3513;47.664;9.162;2022-08-05T11:14:02;31.30;57.90
6948;DHT22;3513;47.664;9.162;2022-08-05T11:16:29;31.30;58.90
6948;DHT22;3513;47.664;9.162;2022-08-05T11:19:23;31.40;58.60
6948;DHT22;3513;47.664;9.162;2022-08-05T11:21:49;31.50;58.80
6948;DHT22;3513;47.664;9.162;2022-08-05T11:24:18;31.60;58.20
6948;DHT22;3513;47.664;9.162;2022-08-05T11:26:46;31.60;58.00
6948;DHT22;3513;47.664;9.162;2022-08-05T11:29:48;31.70;57.80
6948;DHT22;3513;47.664;9.162;2022-08-05T11:32:25;31.80;57.50
6948;DHT22;3513;47.664;9.162;2022-08-05T11:34:55;31.80;57.70
6948;DHT22;3513;47.664;9.162;2022-08-05T11:40:06;32.00;57.50
6948;DHT22;3513;47.664;9.162;2022-08-05T11:42:32;32.10;57.30
6948;DHT22;3513;47.664;9.162;2022-08-05T11:45:03;32.10;56.50
6948;DHT22;3513;47.664;9.162;2022-08-05T11:47:31;32.20;56.10
6948;DHT22;3513;47.664;9.162;2022-08-05T11:50:00;32.20;55.90
6948;DHT22;3513;47.664;9.162;2022-08-05T11:52:27;32.20;55.60
6948;DHT22;3513;47.664;9.162;2022-08-05T11:54:53;32.10;55.20
6948;DHT22;3513;47.664;9.162;2022-08-05T11:57:20;32.00;55.10
6948;DHT22;3513;47.664;9.162;2022-08-05T11:59:45;32.10;55.00
6948;DHT22;3513;47.664;9.162;2022-08-05T12:02:14;32.20;54.70
6948;DHT22;3513;47.664;9.162;2022-08-05T12:04:44;32.30;54.70
6948;DHT22;3513;47.664;9.162;2022-08-05T12:07:15;32.40;54.70
6948;DHT22;3513;47.664;9.162;2022-08-05T12:09:47;32.40;54.40
6948;DHT22;3513;47.664;9.162;2022-08-05T12:12:20;32.60;54.40
6948;DHT22;3513;47.664;9.162;2022-08-05T12:14:47;32.60;53.40
6948;DHT22;3513;47.664;9.162;2022-08-05T12:17:14;32.70;53.80
6948;DHT22;3513;47.664;9.162;2022-08-05T12:19:44;32.90;53.40
6948;DHT22;3513;47.664;9.162;2022-08-05T12:22:11;32.90;53.00
6948;DHT22;3513;47.664;9.162;2022-08-05T12:24:43;33.00;53.30
6948;DHT22;3513;47.664;9.162;2022-08-05T12:27:10;33.50;52.70
6948;DHT22;3513;47.664;9.162;2022-08-05T12:29:43;33.30;52.80
6948;DHT22;3513;47.664;9.162;2022-08-05T12:32:11;33.40;51.60
6948;DHT22;3513;47.664;9.162;2022-08-05T12:34:37;33.50;51.80
6948;DHT22;3513;47.664;9.162;2022-08-05T12:37:08;33.60;51.20
6948;DHT22;3513;47.664;9.162;2022-08-05T12:39:40;33.70;50.90
6948;DHT22;3513;47.664;9.162;2022-08-05T12:42:12;33.70;50.30
6948;DHT22;3513;47.664;9.162;2022-08-05T12:44:39;33.80;50.30
6948;DHT22;3513;47.664;9.162;2022-08-05T12:47:05;33.90;50.50
6948;DHT22;3513;47.664;9.162;2022-08-05T12:49:47;34.10;50.00
6948;DHT22;3513;47.664;9.162;2022-08-05T12:52:17;34.30;49.50
6948;DHT22;3513;47.664;9.162;2022-08-05T12:54:45;34.40;49.20
6948;DHT22;3513;47.664;9.162;2022-08-05T12:57:16;34.60;48.80
6948;DHT22;3513;47.664;9.162;2022-08-05T12:59:43;34.70;48.60
6948;DHT22;3513;47.664;9.162;2022-08-05T13:02:10;34.90;48.20
6948;DHT22;3513;47.664;9.162;2022-08-05T13:04:41;35.10;47.80
6948;DHT22;3513;47.664;9.162;2022-08-05T13:07:11;35.40;47.50
6948;DHT22;3513;47.664;9.162;2022-08-05T13:09:39;35.20;46.60
6948;DHT22;3513;47.664;9.162;2022-08-05T13:12:14;35.70;46.20
6948;DHT22;3513;47.664;9.162;2022-08-05T13:14:46;35.90;45.80
6948;DHT22;3513;47.664;9.162;2022-08-05T13:17:39;36.10;44.80
6948;DHT22;3513;47.664;9.162;2022-08-05T13:20:06;36.30;43.60
6948;DHT22;3513;47.664;9.162;2022-08-05T13:22:37;36.40;43.10
6948;DHT22;3513;47.664;9.162;2022-08-05T13:25:09;36.50;43.40
6948;DHT22;3513;47.664;9.162;2022-08-05T13:27:47;36.70;42.60
6948;DHT22;3513;47.664;9.162;2022-08-05T13:30:15;36.90;41.50
6948;DHT22;3513;47.664;9.162;2022-08-05T13:32:42;37.00;41.50
6948;DHT22;3513;47.664;9.162;2022-08-05T13:35:12;37.00;40.60
6948;DHT22;3513;47.664;9.162;2022-08-05T13:37:39;37.10;40.90
6948;DHT22;3513;47.664;9.162;2022-08-05T13:40:05;37.10;41.00
6948;DHT22;3513;47.664;9.162;2022-08-05T13:42:31;37.20;40.50
6948;DHT22;3513;47.664;9.162;2022-08-05T13:44:56;37.30;39.90
6948;DHT22;3513;47.664;9.162;2022-08-05T13:47:23;37.60;38.60
6948;DHT22;3513;47.664;9.162;2022-08-05T13:49:50;37.90;37.90
6948;DHT22;3513;47.664;9.162;2022-08-05T13:52:18;38.20;37.00
6948;DHT22;3513;47.664;9.162;2022-08-05T13:54:44;38.40;36.60
6948;DHT22;3513;47.664;9.162;2022-08-05T13:57:11;38.70;36.30
6948;DHT22;3513;47.664;9.162;2022-08-05T13:59:37;38.90;35.80
6948;DHT22;3513;47.664;9.162;2022-08-05T14:02:05;38.90;34.50
6948;DHT22;3513;47.664;9.162;2022-08-05T14:04:34;39.00;34.70
6948;DHT22;3513;47.664;9.162;2022-08-05T14:07:21;39.10;34.40
6948;DHT22;3513;47.664;9.162;2022-08-05T14:09:47;39.30;34.30
6948;DHT22;3513;47.664;9.162;2022-08-05T14:12:13;39.50;33.90
6948;DHT22;3513;47.664;9.162;2022-08-05T14:14:38;39.80;33.10
6948;DHT22;3513;47.664;9.162;2022-08-05T14:17:04;39.90;31.90
6948;DHT22;3513;47.664;9.162;2022-08-05T14:19:30;40.00;32.70
6948;DHT22;3513;47.664;9.162;2022-08-05T14:21:56;40.30;31.70
6948;DHT22;3513;47.664;9.162;2022-08-05T14:24:22;40.30;31.40
6948;DHT22;3513;47.664;9.162;2022-08-05T14:26:47;40.40;31.30
6948;DHT22;3513;47.664;9.162;2022-08-05T14:29:13;40.60;31.40
6948;DHT22;3513;47.664;9.162;2022-08-05T14:31:39;40.80;30.70
6948;DHT22;3513;47.664;9.162;2022-08-05T14:34:04;41.00;30.50
6948;DHT22;3513;47.664;9.162;2022-08-05T14:36:30;41.20;30.60
6948;DHT22;3513;47.664;9.162;2022-08-05T14:38:56;41.40;30.00
6948;DHT22;3513;47.664;9.162;2022-08-05T14:41:22;41.60;30.10
6948;DHT22;3513;47.664;9.162;2022-08-05T14:43:48;41.60;30.00
6948;DHT22;3513;47.664;9.162;2022-08-05T14:46:19;41.70;29.80
6948;DHT22;3513;47.664;9.162;2022-08-05T14:48:44;41.70;29.50
6948;DHT22;3513;47.664;9.162;2022-08-05T14:51:10;41.50;29.70
6948;DHT22;3513;47.664;9.162;2022-08-05T14:53:36;41.40;30.00
6948;DHT22;3513;47.664;9.162;2022-08-05T14:56:02;41.10;29.90
6948;DHT22;3513;47.664;9.162;2022-08-05T14:58:27;40.90;30.50
6948;DHT22;3513;47.664;9.162;2022-08-05T15:00:53;40.60;30.40
6948;DHT22;3513;47.664;9.162;2022-08-05T15:03:19;40.20;31.30
6948;DHT22;3513;47.664;9.162;2022-08-05T15:05:44;40.00;31.70
6948;DHT22;3513;47.664;9.162;2022-08-05T15:08:10;39.80;31.60
6948;DHT22;3513;47.664;9.162;2022-08-05T15:10:36;39.50;31.90
6948;DHT22;3513;47.664;9.162;2022-08-05T15:13:01;39.30;31.90
6948;DHT22;3513;47.664;9.162;2022-08-05T15:15:29;39.00;32.90
6948;DHT22;3513;47.664;9.162;2022-08-05T15:17:54;38.90;32.80
6948;DHT22;3513;47.664;9.162;2022-08-05T15:20:20;39.00;33.10
6948;DHT22;3513;47.664;9.162;2022-08-05T15:22:47;39.30;32.70
6948;DHT22;3513;47.664;9.162;2022-08-05T15:25:13;39.50;32.30
6948;DHT22;3513;47.664;9.162;2022-08-05T15:27:39;39.80;32.20
6948;DHT22;3513;47.664;9.162;2022-08-05T15:30:05;39.90;32.00
6948;DHT22;3513;47.664;9.162;2022-08-05T15:32:31;40.00;32.00
6948;DHT22;3513;47.664;9.162;2022-08-05T15:34:57;40.20;32.00
6948;DHT22;3513;47.664;9.162;2022-08-05T15:37:24;40.60;31.50
6948;DHT22;3513;47.664;9.162;2022-08-05T15:39:49;40.90;30.90
6948;DHT22;3513;47.664;9.162;2022-08-05T15:42:15;41.00;30.60
6948;DHT22;3513;47.664;9.162;2022-08-05T15:44:41;41.00;30.50
6948;DHT22;3513;47.664;9.162;2022-08-05T15:47:07;40.80;30.60
6948;DHT22;3513;47.664;9.162;2022-08-05T15:49:33;40.40;30.70
6948;DHT22;3513;47.664;9.162;2022-08-05T15:52:00;40.00;31.00
6948;DHT22;3513;47.664;9.162;2022-08-05T15:54:26;39.50;31.30
6948;DHT22;3513;47.664;9.162;2022-08-05T15:56:51;39.20;32.00
6948;DHT22;3513;47.664;9.162;2022-08-05T15:59:17;38.90;32.80
6948;DHT22;3513;47.664;9.162;2022-08-05T16:01:43;38.80;32.90
6948;DHT22;3513;47.664;9.162;2022-08-05T16:04:09;38.90;32.40
6948;DHT22;3513;47.664;9.162;2022-08-05T16:06:35;39.20;32.30
6948;DHT22;3513;47.664;9.162;2022-08-05T16:09:01;39.30;31.70
6948;DHT22;3513;47.664;9.162;2022-08-05T16:11:27;39.40;31.30
6948;DHT22;3513;47.664;9.162;2022-08-05T16:13:53;39.50;31.40
6948;DHT22;3513;47.664;9.162;2022-08-05T16:16:19;39.50;31.00
6948;DHT22;3513;47.664;9.162;2022-08-05T16:18:46;39.30;31.10
6948;DHT22;3513;47.664;9.162;2022-08-05T16:21:12;39.00;31.70
6948;DHT22;3513;47.664;9.162;2022-08-05T16:23:38;39.20;31.90
6948;DHT22;3513;47.664;9.162;2022-08-05T16:26:08;39.30;31.30
6948;DHT22;3513;47.664;9.162;2022-08-05T16:28:36;39.50;31.20
6948;DHT22;3513;47.664;9.162;2022-08-05T16:31:02;39.60;31.30
6948;DHT22;3513;47.664;9.162;2022-08-05T16:33:28;39.90;30.90
6948;DHT22;3513;47.664;9.162;2022-08-05T16:35:58;40.30;30.30
6948;DHT22;3513;47.664;9.162;2022-08-05T16:38:24;40.20;30.20
6948;DHT22;3513;47.664;9.162;2022-08-05T16:40:51;39.90;30.60
6948;DHT22;3513;47.664;9.162;2022-08-05T16:43:17;39.40;31.50
6948;DHT22;3513;47.664;9.162;2022-08-05T16:45:42;38.90;31.60
6948;DHT22;3513;47.664;9.162;2022-08-05T16:48:08;38.30;32.00
6948;DHT22;3513;47.664;9.162;2022-08-05T16:50:34;38.20;32.50
6948;DHT22;3513;47.664;9.162;2022-08-05T16:52:59;38.10;33.20
6948;DHT22;3513;47.664;9.162;2022-08-05T16:55:25;38.60;32.60
6948;DHT22;3513;47.664;9.162;2022-08-05T16:57:51;39.30;31.70
6948;DHT22;3513;47.664;9.162;2022-08-05T17:00:17;39.80;31.30
6948;DHT22;3513;47.664;9.162;2022-08-05T17:02:43;40.10;30.70
6948;DHT22;3513;47.664;9.162;2022-08-05T17:05:09;39.70;30.60
6948;DHT22;3513;47.664;9.162;2022-08-05T17:07:41;39.10;31.30
6948;DHT22;3513;47.664;9.162;2022-08-05T17:10:17;38.10;33.20
6948;DHT22;3513;47.664;9.162;2022-08-05T17:12:52;37.10;35.60
6948;DHT22;3513;47.664;9.162;2022-08-05T17:18:17;34.80;39.30
6948;DHT22;3513;47.664;9.162;2022-08-05T17:20:49;34.70;41.30
6948;DHT22;3513;47.664;9.162;2022-08-05T17:28:47;33.20;44.20
6948;DHT22;3513;47.664;9.162;2022-08-05T17:31:18;32.20;42.70
6948;DHT22;3513;47.664;9.162;2022-08-05T17:33:50;29.20;42.30
6948;DHT22;3513;47.664;9.162;2022-08-05T17:36:16;29.90;44.30
6948;DHT22;3513;47.664;9.162;2022-08-05T17:38:42;30.30;45.50
6948;DHT22;3513;47.664;9.162;2022-08-05T17:41:08;29.80;46.90
6948;DHT22;3513;47.664;9.162;2022-08-05T17:43:39;28.50;47.60
6948;DHT22;3513;47.664;9.162;2022-08-05T17:46:05;28.80;48.50
6948;DHT22;3513;47.664;9.162;2022-08-05T17:48:31;28.90;50.60
6948;DHT22;3513;47.664;9.162;2022-08-05T17:51:04;28.50;51.90
6948;DHT22;3513;47.664;9.162;2022-08-05T17:53:35;28.30;52.20
6948;DHT22;3513;47.664;9.162;2022-08-05T17:56:01;28.10;52.50
6948;DHT22;3513;47.664;9.162;2022-08-05T17:58:29;27.90;53.00
6948;DHT22;3513;47.664;9.162;2022-08-05T18:00:55;27.70;53.90
6948;DHT22;3513;47.664;9.162;2022-08-05T18:03:21;27.60;54.10
6948;DHT22;3513;47.664;9.162;2022-08-05T18:05:47;28.00;54.60
6948;DHT22;3513;47.664;9.162;2022-08-05T18:08:13;27.30;55.00
6948;DHT22;3513;47.664;9.162;2022-08-05T18:10:45;26.80;66.90
6948;DHT22;3513;47.664;9.162;2022-08-05T18:13:10;25.90;74.50
6948;DHT22;3513;47.664;9.162;2022-08-05T18:15:36;25.50;81.50
6948;DHT22;3513;47.664;9.162;2022-08-05T18:18:02;24.80;85.70
6948;DHT22;3513;47.664;9.162;2022-08-05T18:20:28;24.40;91.20
6948;DHT22;3513;47.664;9.162;2022-08-05T18:22:54;23.90;95.60
6948;DHT22;3513;47.664;9.162;2022-08-05T18:25:20;23.30;99.90
6948;DHT22;3513;47.664;9.162;2022-08-05T18:27:46;21.90;99.90
6948;DHT22;3513;47.664;9.162;2022-08-05T18:30:18;20.60;99.00
6948;DHT22;3513;47.664;9.162;2022-08-05T18:32:53;18.50;99.90
6948;DHT22;3513;47.664;9.162;2022-08-05T18:35:19;18.80;99.90
6948;DHT22;3513;47.664;9.162;2022-08-05T18:37:45;18.50;99.90
6948;DHT22;3513;47.664;9.162;2022-08-05T18:40:15;18.20;99.90
6948;DHT22;3513;47.664;9.162;2022-08-05T18:42:41;17.90;99.90
6948;DHT22;3513;47.664;9.162;2022-08-05T18:45:07;17.80;99.90
6948;DHT22;3513;47.664;9.162;2022-08-05T18:47:34;17.80;99.90
6948;DHT22;3513;47.664;9.162;2022-08-05T18:50:03;17.80;99.90
6948;DHT22;3513;47.664;9.162;2022-08-05T18:52:52;17.90;99.90
6948;DHT22;3513;47.664;9.162;2022-08-05T18:55:18;17.90;99.90
6948;DHT22;3513;47.664;9.162;2022-08-05T18:57:45;18.00;99.90
6948;DHT22;3513;47.664;9.162;2022-08-05T19:00:12;17.90;99.90
6948;DHT22;3513;47.664;9.162;2022-08-05T19:02:38;17.70;99.90
6948;DHT22;3513;47.664;9.162;2022-08-05T19:05:05;17.70;99.90
6948;DHT22;3513;47.664;9.162;2022-08-05T19:07:31;17.80;99.90
6948;DHT22;3513;47.664;9.162;2022-08-05T19:09:57;17.80;99.90
6948;DHT22;3513;47.664;9.162;2022-08-05T19:12:23;16.60;99.90
6948;DHT22;3513;47.664;9.162;2022-08-05T19:14:48;18.10;99.90
6948;DHT22;3513;47.664;9.162;2022-08-05T19:17:15;18.10;99.90
6948;DHT22;3513;47.664;9.162;2022-08-05T19:19:41;18.20;99.90
6948;DHT22;3513;47.664;9.162;2022-08-05T19:22:12;18.40;99.90
6948;DHT22;3513;47.664;9.162;2022-08-05T19:24:38;18.40;99.90
6948;DHT22;3513;47.664;9.162;2022-08-05T19:27:04;18.40;99.90
6948;DHT22;3513;47.664;9.162;2022-08-05T19:29:32;18.50;99.90
6948;DHT22;3513;47.664;9.162;2022-08-05T19:55:26;18.70;99.90
6948;DHT22;3513;47.664;9.162;2022-08-05T19:57:59;18.60;99.90
6948;DHT22;3513;47.664;9.162;2022-08-05T20:05:36;18.60;99.90
6948;DHT22;3513;47.664;9.162;2022-08-05T20:08:02;19.50;99.90
6948;DHT22;3513;47.664;9.162;2022-08-05T20:10:27;18.80;99.90
6948;DHT22;3513;47.664;9.162;2022-08-05T20:12:53;18.70;99.90
6948;DHT22;3513;47.664;9.162;2022-08-05T20:15:20;18.60;99.90
6948;DHT22;3513;47.664;9.162;2022-08-05T20:17:46;18.60;99.90
6948;DHT22;3513;47.664;9.162;2022-08-05T20:20:12;18.60;99.90
6948;DHT22;3513;47.664;9.162;2022-08-05T20:22:39;18.60;99.90
6948;DHT22;3513;47.664;9.162;2022-08-05T20:25:05;18.60;99.90
6948;DHT22;3513;47.664;9.162;2022-08-05T20:27:31;18.70;99.90
6948;DHT22;3513;47.664;9.162;2022-08-05T20:29:56;18.70;99.90
6948;DHT22;3513;47.664;9.162;2022-08-05T20:32:23;18.70;99.90
6948;DHT22;3513;47.664;9.162;2022-08-05T20:34:48;18.70;99.90
6948;DHT22;3513;47.664;9.162;2022-08-05T20:37:14;18.70;99.90
6948;DHT22;3513;47.664;9.162;2022-08-05T20:39:40;18.70;99.90
6948;DHT22;3513;47.664;9.162;2022-08-05T20:42:06;18.70;99.90
6948;DHT22;3513;47.664;9.162;2022-08-05T20:44:32;18.70;99.90
6948;DHT22;3513;47.664;9.162;2022-08-05T20:46:59;18.70;99.90